sensor_id;sensor_type;location;lat;lon;timestamp;temperature;humidity
11991;DHT22;6055;52.522;13.446;2023-03-08T00:00:49;1.80;99.90
11991;DHT22;6055;52.522;13.446;2023-03-08T00:03:15;1.80;99.90
11991;DHT22;6055;52.522;13.446;2023-03-08T00:05:41;1.80;99.90
11991;DHT22;6055;52.522;13.446;2023-03-08T00:08:06;1.80;99.90
11991;DHT22;6055;52.522;13.446;2023-03-08T00:10:32;1.70;99.90
11991;DHT22;6055;52.522;13.446;2023-03-08T00:12:58;1.70;99.90
11991;DHT22;6055;52.522;13.446;2023-03-08T00:15:23;1.70;99.90
11991;DHT22;6055;52.522;13.446;2023-03-08T00:17:49;1.70;99.90
11991;DHT22;6055;52.522;13.446;2023-03-08T00:20:14;1.70;99.90
11991;DHT22;6055;52.522;13.446;2023-03-08T00:22:41;1.60;99.90
11991;DHT22;6055;52.522;13.446;2023-03-08T00:25:08;1.60;99.90
11991;DHT22;6055;52.522;13.446;2023-03-08T00:27:34;1.60;99.90
11991;DHT22;6055;52.522;13.446;2023-03-08T00:30:03;1.60;99.90
11991;DHT22;6055;52.522;13.446;2023-03-08T00:32:30;1.60;99.90
11991;DHT22;6055;52.522;13.446;2023-03-08T00:34:56;1.60;99.90
11991;DHT22;6055;52.522;13.446;2023-03-08T00:37:21;1.50;99.90
11991;DHT22;6055;52.522;13.446;2023-03-08T00:39:50;1.50;99.90
11991;DHT22;6055;52.522;13.446;2023-03-08T00:42:17;1.50;99.90
11991;DHT22;6055;52.522;13.446;2023-03-08T00:44:43;1.50;99.90
11991;DHT22;6055;52.522;13.446;2023-03-08T00:47:08;1.50;99.90
11991;DHT22;6055;52.522;13.446;2023-03-08T00:49:33;1.50;99.90
11991;DHT22;6055;52.522;13.446;2023-03-08T00:51:59;1.50;99.90
11991;DHT22;6055;52.522;13.446;2023-03-08T00:54:24;1.40;99.90
11991;DHT22;6055;52.522;13.446;2023-03-08T00:56:50;1.40;99.90
11991;DHT22;6055;52.522;13.446;2023-03-08T00:59:15;1.40;99.90
11991;DHT22;6055;52.522;13.446;2023-03-08T01:01:41;1.40;99.90
11991;DHT22;6055;52.522;13.446;2023-03-08T01:04:06;1.40;99.90
11991;DHT22;6055;52.522;13.446;2023-03-08T01:06:32;1.40;99.90
11991;DHT22;6055;52.522;13.446;2023-03-08T01:08:57;1.40;99.90
11991;DHT22;6055;52.522;13.446;2023-03-08T01:11:24;1.40;99.90
11991;DHT22;6055;52.522;13.446;2023-03-08T01:13:51;1.40;99.90
11991;DHT22;6055;52.522;13.446;2023-03-08T01:16:22;1.40;99.90
11991;DHT22;6055;52.522;13.446;2023-03-08T01:18:48;1.40;99.90
11991;DHT22;6055;52.522;13.446;2023-03-08T01:21:15;1.30;99.90
11991;DHT22;6055;52.522;13.446;2023-03-08T01:23:41;1.40;99.90
11991;DHT22;6055;52.522;13.446;2023-03-08T01:26:15;1.30;99.90
11991;DHT22;6055;52.522;13.446;2023-03-08T01:28:41;1.30;99.90
11991;DHT22;6055;52.522;13.446;2023-03-08T01:31:15;1.30;99.90
11991;DHT22;6055;52.522;13.446;2023-03-08T01:33:43;1.30;99.90
11991;DHT22;6055;52.522;13.446;2023-03-08T01:36:10;1.30;99.90
11991;DHT22;6055;52.522;13.446;2023-03-08T01:38:36;1.30;99.90
11991;DHT22;6055;52.522;13.446;2023-03-08T01:41:04;1.20;99.90
11991;DHT22;6055;52.522;13.446;2023-03-08T01:43:31;1.20;99.90
11991;DHT22;6055;52.522;13.446;2023-03-08T01:48:44;1.20;99.90
11991;DHT22;6055;52.522;13.446;2023-03-08T01:51:15;1.20;99.90
11991;DHT22;6055;52.522;13.446;2023-03-08T01:53:41;1.20;99.90
11991;DHT22;6055;52.522;13.446;2023-03-08T01:56:10;1.10;99.90
11991;DHT22;6055;52.522;13.446;2023-03-08T01:58:39;1.10;99.90
11991;DHT22;6055;52.522;13.446;2023-03-08T02:01:05;1.10;99.90
11991;DHT22;6055;52.522;13.446;2023-03-08T02:03:30;1.10;99.90
11991;DHT22;6055;52.522;13.446;2023-03-08T02:05:56;1.10;99.90
11991;DHT22;6055;52.522;13.446;2023-03-08T02:08:22;1.10;99.90
11991;DHT22;6055;52.522;13.446;2023-03-08T02:10:48;1.10;99.90
11991;DHT22;6055;52.522;13.446;2023-03-08T02:13:14;1.10;99.90
11991;DHT22;6055;52.522;13.446;2023-03-08T02:15:40;1.10;99.90
11991;DHT22;6055;52.522;13.446;2023-03-08T02:18:06;1.10;99.90
11991;DHT22;6055;52.522;13.446;2023-03-08T02:20:35;1.10;99.90
11991;DHT22;6055;52.522;13.446;2023-03-08T02:23:17;1.10;99.90
11991;DHT22;6055;52.522;13.446;2023-03-08T02:25:51;1.10;99.90
11991;DHT22;6055;52.522;13.446;2023-03-08T02:28:18;1.10;99.90
11991;DHT22;6055;52.522;13.446;2023-03-08T02:30:43;1.10;99.90
11991;DHT22;6055;52.522;13.446;2023-03-08T02:33:09;1.00;99.90
11991;DHT22;6055;52.522;13.446;2023-03-08T02:35:35;1.00;99.90
11991;DHT22;6055;52.522;13.446;2023-03-08T02:38:01;1.00;99.90
11991;DHT22;6055;52.522;13.446;2023-03-08T02:40:26;1.00;99.90
11991;DHT22;6055;52.522;13.446;2023-03-08T02:42:52;1.00;99.90
11991;DHT22;6055;52.522;13.446;2023-03-08T02:45:19;1.00;99.90
11991;DHT22;6055;52.522;13.446;2023-03-08T02:47:45;1.00;99.90
11991;DHT22;6055;52.522;13.446;2023-03-08T02:50:10;1.00;99.90
11991;DHT22;6055;52.522;13.446;2023-03-08T02:52:36;1.00;99.90
11991;DHT22;6055;52.522;13.446;2023-03-08T02:55:01;1.00;99.90
11991;DHT22;6055;52.522;13.446;2023-03-08T02:57:27;1.00;99.90
11991;DHT22;6055;52.522;13.446;2023-03-08T02:59:52;1.00;99.90
11991;DHT22;6055;52.522;13.446;2023-03-08T03:02:18;0.90;99.90
11991;DHT22;6055;52.522;13.446;2023-03-08T03:04:43;0.90;99.90
11991;DHT22;6055;52.522;13.446;2023-03-08T03:07:09;0.90;99.90
11991;DHT22;6055;52.522;13.446;2023-03-08T03:09:34;0.90;99.90
11991;DHT22;6055;52.522;13.446;2023-03-08T03:12:00;0.90;99.90
11991;DHT22;6055;52.522;13.446;2023-03-08T03:14:29;0.90;99.90
11991;DHT22;6055;52.522;13.446;2023-03-08T03:16:54;0.90;99.90
11991;DHT22;6055;52.522;13.446;2023-03-08T03:19:20;0.90;99.90
11991;DHT22;6055;52.522;13.446;2023-03-08T03:21:45;0.90;99.90
11991;DHT22;6055;52.522;13.446;2023-03-08T03:24:12;1.00;99.90
11991;DHT22;6055;52.522;13.446;2023-03-08T03:26:38;0.90;99.90
11991;DHT22;6055;52.522;13.446;2023-03-08T03:29:03;0.90;99.90
11991;DHT22;6055;52.522;13.446;2023-03-08T03:31:28;0.90;99.90
11991;DHT22;6055;52.522;13.446;2023-03-08T03:33:55;0.90;99.90
11991;DHT22;6055;52.522;13.446;2023-03-08T03:36:21;0.90;99.90
11991;DHT22;6055;52.522;13.446;2023-03-08T03:38:48;0.90;99.90
11991;DHT22;6055;52.522;13.446;2023-03-08T03:41:16;0.90;99.90
11991;DHT22;6055;52.522;13.446;2023-03-08T03:43:42;0.90;99.90
11991;DHT22;6055;52.522;13.446;2023-03-08T03:46:12;0.90;99.90
11991;DHT22;6055;52.522;13.446;2023-03-08T03:48:38;0.90;99.90
11991;DHT22;6055;52.522;13.446;2023-03-08T03:51:10;1.00;99.90
11991;DHT22;6055;52.522;13.446;2023-03-08T03:53:36;0.90;99.90
11991;DHT22;6055;52.522;13.446;2023-03-08T03:58:32;1.00;99.90
11991;DHT22;6055;52.522;13.446;2023-03-08T04:00:57;1.00;99.90
11991;DHT22;6055;52.522;13.446;2023-03-08T04:03:23;1.00;99.90
11991;DHT22;6055;52.522;13.446;2023-03-08T04:05:49;0.90;99.90
11991;DHT22;6055;52.522;13.446;2023-03-08T04:08:14;1.00;99.90
11991;DHT22;6055;52.522;13.446;2023-03-08T04:10:40;0.90;99.90
11991;DHT22;6055;52.522;13.446;2023-03-08T04:13:05;1.00;99.90
11991;DHT22;6055;52.522;13.446;2023-03-08T04:15:31;1.00;99.90
11991;DHT22;6055;52.522;13.446;2023-03-08T04:17:56;1.00;99.90
11991;DHT22;6055;52.522;13.446;2023-03-08T04:20:22;1.00;99.90
11991;DHT22;6055;52.522;13.446;2023-03-08T04:22:48;1.00;99.90
11991;DHT22;6055;52.522;13.446;2023-03-08T04:25:13;1.00;99.90
11991;DHT22;6055;52.522;13.446;2023-03-08T04:27:39;1.00;99.90
11991;DHT22;6055;52.522;13.446;2023-03-08T04:30:05;1.00;99.90
11991;DHT22;6055;52.522;13.446;2023-03-08T04:32:31;1.00;99.90
11991;DHT22;6055;52.522;13.446;2023-03-08T04:34:57;1.00;99.90
11991;DHT22;6055;52.522;13.446;2023-03-08T04:37:23;1.00;99.90
11991;DHT22;6055;52.522;13.446;2023-03-08T04:39:49;1.00;99.90
11991;DHT22;6055;52.522;13.446;2023-03-08T04:42:14;1.00;99.90
11991;DHT22;6055;52.522;13.446;2023-03-08T04:44:39;1.00;99.90
11991;DHT22;6055;52.522;13.446;2023-03-08T04:47:05;1.00;99.90
11991;DHT22;6055;52.522;13.446;2023-03-08T04:49:31;1.00;99.90
11991;DHT22;6055;52.522;13.446;2023-03-08T04:51:56;1.00;99.90
11991;DHT22;6055;52.522;13.446;2023-03-08T04:54:21;0.90;99.90
11991;DHT22;6055;52.522;13.446;2023-03-08T04:56:47;0.80;99.90
11991;DHT22;6055;52.522;13.446;2023-03-08T04:59:12;0.80;99.90
11991;DHT22;6055;52.522;13.446;2023-03-08T05:01:38;0.80;99.90
11991;DHT22;6055;52.522;13.446;2023-03-08T05:04:03;0.80;99.90
11991;DHT22;6055;52.522;13.446;2023-03-08T05:06:29;0.90;99.90
11991;DHT22;6055;52.522;13.446;2023-03-08T05:08:54;0.80;99.90
11991;DHT22;6055;52.522;13.446;2023-03-08T05:11:25;0.80;99.90
11991;DHT22;6055;52.522;13.446;2023-03-08T05:13:56;0.70;99.90
11991;DHT22;6055;52.522;13.446;2023-03-08T05:16:22;0.70;99.90
11991;DHT22;6055;52.522;13.446;2023-03-08T05:18:48;0.70;99.90
11991;DHT22;6055;52.522;13.446;2023-03-08T05:21:16;0.70;99.90
11991;DHT22;6055;52.522;13.446;2023-03-08T05:23:42;0.70;99.90
11991;DHT22;6055;52.522;13.446;2023-03-08T05:26:09;0.70;99.90
11991;DHT22;6055;52.522;13.446;2023-03-08T05:28:35;0.60;99.90
11991;DHT22;6055;52.522;13.446;2023-03-08T05:31:02;0.70;99.90
11991;DHT22;6055;52.522;13.446;2023-03-08T05:33:28;0.60;99.90
11991;DHT22;6055;52.522;13.446;2023-03-08T05:35:54;0.60;99.90
11991;DHT22;6055;52.522;13.446;2023-03-08T05:38:20;0.60;99.90
11991;DHT22;6055;52.522;13.446;2023-03-08T05:40:46;0.70;99.90
11991;DHT22;6055;52.522;13.446;2023-03-08T05:43:12;0.70;99.90
11991;DHT22;6055;52.522;13.446;2023-03-08T05:45:37;0.70;99.90
11991;DHT22;6055;52.522;13.446;2023-03-08T05:48:04;0.70;99.90
11991;DHT22;6055;52.522;13.446;2023-03-08T05:50:29;0.70;99.90
11991;DHT22;6055;52.522;13.446;2023-03-08T05:52:54;0.80;99.90
11991;DHT22;6055;52.522;13.446;2023-03-08T05:55:20;0.80;99.90
11991;DHT22;6055;52.522;13.446;2023-03-08T05:57:45;0.80;99.90
11991;DHT22;6055;52.522;13.446;2023-03-08T06:00:11;0.90;99.90
11991;DHT22;6055;52.522;13.446;2023-03-08T06:02:37;0.90;99.90
11991;DHT22;6055;52.522;13.446;2023-03-08T06:05:03;0.90;99.90
11991;DHT22;6055;52.522;13.446;2023-03-08T06:07:29;1.00;99.90
11991;DHT22;6055;52.522;13.446;2023-03-08T06:09:54;1.00;99.90
11991;DHT22;6055;52.522;13.446;2023-03-08T06:12:20;1.10;99.90
11991;DHT22;6055;52.522;13.446;2023-03-08T06:14:46;1.10;99.90
11991;DHT22;6055;52.522;13.446;2023-03-08T06:17:11;1.10;99.90
11991;DHT22;6055;52.522;13.446;2023-03-08T06:19:37;1.10;99.90
11991;DHT22;6055;52.522;13.446;2023-03-08T06:22:02;1.10;99.90
11991;DHT22;6055;52.522;13.446;2023-03-08T06:24:28;1.10;99.90
11991;DHT22;6055;52.522;13.446;2023-03-08T06:26:53;1.10;99.90
11991;DHT22;6055;52.522;13.446;2023-03-08T06:29:20;1.10;99.90
11991;DHT22;6055;52.522;13.446;2023-03-08T06:31:45;1.10;99.90
11991;DHT22;6055;52.522;13.446;2023-03-08T06:34:11;1.10;99.90
11991;DHT22;6055;52.522;13.446;2023-03-08T06:36:37;1.10;99.90
11991;DHT22;6055;52.522;13.446;2023-03-08T06:39:02;1.10;99.90
11991;DHT22;6055;52.522;13.446;2023-03-08T06:41:28;1.20;99.90
11991;DHT22;6055;52.522;13.446;2023-03-08T06:43:55;1.20;99.90
11991;DHT22;6055;52.522;13.446;2023-03-08T06:46:21;1.20;99.90
11991;DHT22;6055;52.522;13.446;2023-03-08T06:48:47;1.20;99.90
11991;DHT22;6055;52.522;13.446;2023-03-08T06:51:13;1.20;99.90
11991;DHT22;6055;52.522;13.446;2023-03-08T06:53:38;1.20;99.90
11991;DHT22;6055;52.522;13.446;2023-03-08T06:56:06;1.20;99.90
11991;DHT22;6055;52.522;13.446;2023-03-08T06:58:33;1.20;99.90
11991;DHT22;6055;52.522;13.446;2023-03-08T07:00:59;1.30;99.90
11991;DHT22;6055;52.522;13.446;2023-03-08T07:03:25;1.30;99.90
11991;DHT22;6055;52.522;13.446;2023-03-08T07:05:51;1.30;99.90
11991;DHT22;6055;52.522;13.446;2023-03-08T07:08:16;1.40;99.90
11991;DHT22;6055;52.522;13.446;2023-03-08T07:10:42;1.40;99.90
11991;DHT22;6055;52.522;13.446;2023-03-08T07:13:07;1.40;99.90
11991;DHT22;6055;52.522;13.446;2023-03-08T07:15:33;1.40;99.90
11991;DHT22;6055;52.522;13.446;2023-03-08T07:17:58;1.50;99.90
11991;DHT22;6055;52.522;13.446;2023-03-08T07:20:26;1.50;99.90
11991;DHT22;6055;52.522;13.446;2023-03-08T07:22:52;1.50;99.90
11991;DHT22;6055;52.522;13.446;2023-03-08T07:25:20;1.50;99.90
11991;DHT22;6055;52.522;13.446;2023-03-08T07:27:45;1.60;99.90
11991;DHT22;6055;52.522;13.446;2023-03-08T07:30:13;1.60;99.90
11991;DHT22;6055;52.522;13.446;2023-03-08T07:32:40;1.60;99.90
11991;DHT22;6055;52.522;13.446;2023-03-08T07:35:11;1.60;99.90
11991;DHT22;6055;52.522;13.446;2023-03-08T07:37:38;1.60;99.90
11991;DHT22;6055;52.522;13.446;2023-03-08T07:40:04;1.60;99.90
11991;DHT22;6055;52.522;13.446;2023-03-08T07:42:30;1.70;99.90
11991;DHT22;6055;52.522;13.446;2023-03-08T07:44:55;1.80;99.90
11991;DHT22;6055;52.522;13.446;2023-03-08T07:47:21;1.80;99.90
11991;DHT22;6055;52.522;13.446;2023-03-08T07:49:46;1.80;99.90
11991;DHT22;6055;52.522;13.446;2023-03-08T07:52:12;1.90;99.90
11991;DHT22;6055;52.522;13.446;2023-03-08T07:54:38;1.90;99.90
11991;DHT22;6055;52.522;13.446;2023-03-08T07:57:04;1.90;99.90
11991;DHT22;6055;52.522;13.446;2023-03-08T07:59:29;1.90;99.90
11991;DHT22;6055;52.522;13.446;2023-03-08T08:01:55;1.90;99.90
11991;DHT22;6055;52.522;13.446;2023-03-08T08:04:20;2.00;99.90
11991;DHT22;6055;52.522;13.446;2023-03-08T08:06:47;2.00;99.90
11991;DHT22;6055;52.522;13.446;2023-03-08T08:09:13;2.00;99.90
11991;DHT22;6055;52.522;13.446;2023-03-08T08:11:39;2.00;99.90
11991;DHT22;6055;52.522;13.446;2023-03-08T08:14:05;2.10;99.90
11991;DHT22;6055;52.522;13.446;2023-03-08T08:16:31;2.20;99.90
11991;DHT22;6055;52.522;13.446;2023-03-08T08:18:56;2.30;99.90
11991;DHT22;6055;52.522;13.446;2023-03-08T08:21:22;2.40;99.90
11991;DHT22;6055;52.522;13.446;2023-03-08T08:23:48;2.50;99.90
11991;DHT22;6055;52.522;13.446;2023-03-08T08:26:19;2.60;99.90
11991;DHT22;6055;52.522;13.446;2023-03-08T08:28:47;2.70;99.90
11991;DHT22;6055;52.522;13.446;2023-03-08T08:31:15;2.80;99.90
11991;DHT22;6055;52.522;13.446;2023-03-08T08:33:41;2.90;99.90
11991;DHT22;6055;52.522;13.446;2023-03-08T08:36:08;3.00;99.90
11991;DHT22;6055;52.522;13.446;2023-03-08T08:38:35;3.00;99.90
11991;DHT22;6055;52.522;13.446;2023-03-08T08:41:03;3.00;99.90
11991;DHT22;6055;52.522;13.446;2023-03-08T08:43:29;3.10;99.90
11991;DHT22;6055;52.522;13.446;2023-03-08T08:45:56;3.20;99.90
11991;DHT22;6055;52.522;13.446;2023-03-08T08:48:22;3.20;99.90
11991;DHT22;6055;52.522;13.446;2023-03-08T08:50:48;3.30;99.90
11991;DHT22;6055;52.522;13.446;2023-03-08T08:53:14;3.40;99.90
11991;DHT22;6055;52.522;13.446;2023-03-08T08:55:40;3.50;99.90
11991;DHT22;6055;52.522;13.446;2023-03-08T08:58:05;3.60;99.90
11991;DHT22;6055;52.522;13.446;2023-03-08T09:00:32;3.70;99.90
11991;DHT22;6055;52.522;13.446;2023-03-08T09:02:59;3.80;99.90
11991;DHT22;6055;52.522;13.446;2023-03-08T09:05:25;3.90;99.90
11991;DHT22;6055;52.522;13.446;2023-03-08T09:07:55;3.80;99.90
11991;DHT22;6055;52.522;13.446;2023-03-08T09:10:23;3.80;99.90
11991;DHT22;6055;52.522;13.446;2023-03-08T09:12:49;3.70;99.90
11991;DHT22;6055;52.522;13.446;2023-03-08T09:15:14;3.50;99.90
11991;DHT22;6055;52.522;13.446;2023-03-08T09:17:40;3.50;99.90
11991;DHT22;6055;52.522;13.446;2023-03-08T09:20:06;3.50;99.90
11991;DHT22;6055;52.522;13.446;2023-03-08T09:22:34;3.60;99.90
11991;DHT22;6055;52.522;13.446;2023-03-08T09:25:00;3.60;99.90
11991;DHT22;6055;52.522;13.446;2023-03-08T09:27:25;3.60;99.90
11991;DHT22;6055;52.522;13.446;2023-03-08T09:29:51;3.60;99.90
11991;DHT22;6055;52.522;13.446;2023-03-08T09:32:16;3.70;99.90
11991;DHT22;6055;52.522;13.446;2023-03-08T09:34:41;3.80;99.90
11991;DHT22;6055;52.522;13.446;2023-03-08T09:37:10;3.90;99.90
11991;DHT22;6055;52.522;13.446;2023-03-08T09:39:35;3.90;99.90
11991;DHT22;6055;52.522;13.446;2023-03-08T09:42:03;3.80;99.90
11991;DHT22;6055;52.522;13.446;2023-03-08T09:47:36;3.90;99.90
11991;DHT22;6055;52.522;13.446;2023-03-08T09:50:27;3.90;99.90
11991;DHT22;6055;52.522;13.446;2023-03-08T09:53:04;3.90;99.90
11991;DHT22;6055;52.522;13.446;2023-03-08T09:55:35;4.10;99.90
11991;DHT22;6055;52.522;13.446;2023-03-08T09:58:12;4.20;99.90
11991;DHT22;6055;52.522;13.446;2023-03-08T10:00:39;4.30;99.90
11991;DHT22;6055;52.522;13.446;2023-03-08T10:05:58;4.50;99.90
11991;DHT22;6055;52.522;13.446;2023-03-08T10:08:31;4.50;99.90
11991;DHT22;6055;52.522;13.446;2023-03-08T10:11:00;4.40;99.90
11991;DHT22;6055;52.522;13.446;2023-03-08T10:13:32;4.60;99.90
11991;DHT22;6055;52.522;13.446;2023-03-08T10:16:21;4.70;99.90
11991;DHT22;6055;52.522;13.446;2023-03-08T10:21:43;4.60;99.90
11991;DHT22;6055;52.522;13.446;2023-03-08T10:24:15;4.70;99.90
11991;DHT22;6055;52.522;13.446;2023-03-08T10:26:42;4.70;99.90
11991;DHT22;6055;52.522;13.446;2023-03-08T10:29:10;4.70;99.90
11991;DHT22;6055;52.522;13.446;2023-03-08T10:31:36;4.70;99.90
11991;DHT22;6055;52.522;13.446;2023-03-08T10:37:04;5.00;99.90
11991;DHT22;6055;52.522;13.446;2023-03-08T10:39:47;5.10;99.90
11991;DHT22;6055;52.522;13.446;2023-03-08T10:42:17;5.30;99.90
11991;DHT22;6055;52.522;13.446;2023-03-08T10:44:52;5.50;99.90
11991;DHT22;6055;52.522;13.446;2023-03-08T10:47:27;5.50;99.90
11991;DHT22;6055;52.522;13.446;2023-03-08T10:52:43;5.50;99.90
11991;DHT22;6055;52.522;13.446;2023-03-08T10:55:14;5.50;99.90
11991;DHT22;6055;52.522;13.446;2023-03-08T10:57:47;5.70;99.90
11991;DHT22;6055;52.522;13.446;2023-03-08T11:02:42;6.00;99.90
11991;DHT22;6055;52.522;13.446;2023-03-08T11:05:21;6.20;99.90
11991;DHT22;6055;52.522;13.446;2023-03-08T11:07:52;6.40;99.90
11991;DHT22;6055;52.522;13.446;2023-03-08T11:10:20;6.60;99.90
11991;DHT22;6055;52.522;13.446;2023-03-08T11:13:35;6.60;99.50
11991;DHT22;6055;52.522;13.446;2023-03-08T11:15:36;6.60;99.10
11991;DHT22;6055;52.522;13.446;2023-03-08T11:21:49;6.70;99.20
11991;DHT22;6055;52.522;13.446;2023-03-08T11:24:33;6.60;98.30
11991;DHT22;6055;52.522;13.446;2023-03-08T11:27:28;6.40;98.70
11991;DHT22;6055;52.522;13.446;2023-03-08T11:30:27;6.20;99.00
11991;DHT22;6055;52.522;13.446;2023-03-08T11:33:16;6.20;99.10
11991;DHT22;6055;52.522;13.446;2023-03-08T11:35:53;6.30;99.00
11991;DHT22;6055;52.522;13.446;2023-03-08T11:38:27;6.30;97.90
11991;DHT22;6055;52.522;13.446;2023-03-08T11:41:05;6.40;97.60
11991;DHT22;6055;52.522;13.446;2023-03-08T11:43:46;6.40;97.20
11991;DHT22;6055;52.522;13.446;2023-03-08T11:46:23;6.30;97.30
11991;DHT22;6055;52.522;13.446;2023-03-08T11:49:17;6.20;97.30
11991;DHT22;6055;52.522;13.446;2023-03-08T11:57:17;6.30;97.80
11991;DHT22;6055;52.522;13.446;2023-03-08T11:59:48;6.50;97.60
11991;DHT22;6055;52.522;13.446;2023-03-08T12:05:08;6.60;97.10
11991;DHT22;6055;52.522;13.446;2023-03-08T12:07:48;6.60;97.40
11991;DHT22;6055;52.522;13.446;2023-03-08T12:10:40;6.60;97.70
11991;DHT22;6055;52.522;13.446;2023-03-08T12:13:24;6.60;97.70
11991;DHT22;6055;52.522;13.446;2023-03-08T12:26:39;6.10;98.70
11991;DHT22;6055;52.522;13.446;2023-03-08T12:29:25;6.20;97.80
11991;DHT22;6055;52.522;13.446;2023-03-08T12:31:53;6.30;97.60
11991;DHT22;6055;52.522;13.446;2023-03-08T12:34:26;6.10;97.40
11991;DHT22;6055;52.522;13.446;2023-03-08T12:36:52;6.00;97.40
11991;DHT22;6055;52.522;13.446;2023-03-08T12:39:30;6.10;98.20
11991;DHT22;6055;52.522;13.446;2023-03-08T12:44:35;6.20;98.30
11991;DHT22;6055;52.522;13.446;2023-03-08T12:47:21;6.10;97.50
11991;DHT22;6055;52.522;13.446;2023-03-08T12:49:52;6.10;98.30
11991;DHT22;6055;52.522;13.446;2023-03-08T12:54:55;6.00;98.30
11991;DHT22;6055;52.522;13.446;2023-03-08T12:57:25;6.00;98.40
11991;DHT22;6055;52.522;13.446;2023-03-08T12:59:57;6.00;98.00
11991;DHT22;6055;52.522;13.446;2023-03-08T13:02:30;5.90;98.50
11991;DHT22;6055;52.522;13.446;2023-03-08T13:07:36;5.90;99.20
11991;DHT22;6055;52.522;13.446;2023-03-08T13:10:21;5.80;98.80
11991;DHT22;6055;52.522;13.446;2023-03-08T13:15:21;5.70;99.20
11991;DHT22;6055;52.522;13.446;2023-03-08T13:17:50;5.70;99.50
11991;DHT22;6055;52.522;13.446;2023-03-08T13:20:33;5.80;99.50
11991;DHT22;6055;52.522;13.446;2023-03-08T13:28:35;5.60;99.90
11991;DHT22;6055;52.522;13.446;2023-03-08T13:31:09;5.60;99.90
11991;DHT22;6055;52.522;13.446;2023-03-08T13:33:37;5.60;99.90
11991;DHT22;6055;52.522;13.446;2023-03-08T13:38:40;5.50;99.90
11991;DHT22;6055;52.522;13.446;2023-03-08T13:41:05;5.40;99.90
11991;DHT22;6055;52.522;13.446;2023-03-08T13:43:32;5.40;99.90
11991;DHT22;6055;52.522;13.446;2023-03-08T13:46:01;5.40;99.90
11991;DHT22;6055;52.522;13.446;2023-03-08T13:48:30;5.30;99.90
11991;DHT22;6055;52.522;13.446;2023-03-08T13:50:57;5.30;99.90
11991;DHT22;6055;52.522;13.446;2023-03-08T13:53:27;5.20;99.90
11991;DHT22;6055;52.522;13.446;2023-03-08T13:55:58;5.20;99.90
11991;DHT22;6055;52.522;13.446;2023-03-08T13:58:26;5.10;99.90
11991;DHT22;6055;52.522;13.446;2023-03-08T14:01:09;5.00;99.90
11991;DHT22;6055;52.522;13.446;2023-03-08T14:03:36;4.90;99.90
11991;DHT22;6055;52.522;13.446;2023-03-08T14:06:02;4.90;99.90
11991;DHT22;6055;52.522;13.446;2023-03-08T14:08:27;4.90;99.90
11991;DHT22;6055;52.522;13.446;2023-03-08T14:11:03;4.80;99.90
11991;DHT22;6055;52.522;13.446;2023-03-08T14:13:36;4.80;99.90
11991;DHT22;6055;52.522;13.446;2023-03-08T14:16:04;4.70;99.90
11991;DHT22;6055;52.522;13.446;2023-03-08T14:18:38;4.60;99.90
11991;DHT22;6055;52.522;13.446;2023-03-08T14:21:16;4.60;99.90
11991;DHT22;6055;52.522;13.446;2023-03-08T14:23:47;4.60;99.90
11991;DHT22;6055;52.522;13.446;2023-03-08T14:26:33;4.60;99.90
11991;DHT22;6055;52.522;13.446;2023-03-08T14:31:34;4.50;99.90
11991;DHT22;6055;52.522;13.446;2023-03-08T14:34:02;4.50;99.90
11991;DHT22;6055;52.522;13.446;2023-03-08T14:36:30;4.40;99.90
11991;DHT22;6055;52.522;13.446;2023-03-08T14:38:58;4.40;99.90
11991;DHT22;6055;52.522;13.446;2023-03-08T14:41:31;4.30;99.90
11991;DHT22;6055;52.522;13.446;2023-03-08T14:44:01;4.30;99.90
11991;DHT22;6055;52.522;13.446;2023-03-08T14:46:28;4.20;99.90
11991;DHT22;6055;52.522;13.446;2023-03-08T14:48:59;4.20;99.90
11991;DHT22;6055;52.522;13.446;2023-03-08T14:51:48;4.20;99.90
11991;DHT22;6055;52.522;13.446;2023-03-08T14:56:52;4.10;99.90
11991;DHT22;6055;52.522;13.446;2023-03-08T14:59:17;4.00;99.90
11991;DHT22;6055;52.522;13.446;2023-03-08T15:01:43;4.00;99.90
11991;DHT22;6055;52.522;13.446;2023-03-08T15:04:21;4.00;99.90
11991;DHT22;6055;52.522;13.446;2023-03-08T15:06:49;4.00;99.90
11991;DHT22;6055;52.522;13.446;2023-03-08T15:09:17;3.90;99.90
11991;DHT22;6055;52.522;13.446;2023-03-08T15:11:47;3.80;99.90
11991;DHT22;6055;52.522;13.446;2023-03-08T15:14:14;3.80;99.90
11991;DHT22;6055;52.522;13.446;2023-03-08T15:16:39;3.70;99.90
11991;DHT22;6055;52.522;13.446;2023-03-08T15:19:05;3.70;99.90
11991;DHT22;6055;52.522;13.446;2023-03-08T15:21:32;3.70;99.90
11991;DHT22;6055;52.522;13.446;2023-03-08T15:23:59;3.70;99.90
11991;DHT22;6055;52.522;13.446;2023-03-08T15:26:27;3.60;99.90
11991;DHT22;6055;52.522;13.446;2023-03-08T15:28:54;3.60;99.90
11991;DHT22;6055;52.522;13.446;2023-03-08T15:31:19;3.60;99.90
11991;DHT22;6055;52.522;13.446;2023-03-08T15:33:46;3.60;99.90
11991;DHT22;6055;52.522;13.446;2023-03-08T15:36:13;3.60;99.90
11991;DHT22;6055;52.522;13.446;2023-03-08T15:38:39;3.60;99.90
11991;DHT22;6055;52.522;13.446;2023-03-08T15:41:05;3.60;99.90
11991;DHT22;6055;52.522;13.446;2023-03-08T15:43:30;3.60;99.90
11991;DHT22;6055;52.522;13.446;2023-03-08T15:45:57;3.50;99.90
11991;DHT22;6055;52.522;13.446;2023-03-08T15:48:23;3.50;99.90
11991;DHT22;6055;52.522;13.446;2023-03-08T15:50:49;3.50;99.90
11991;DHT22;6055;52.522;13.446;2023-03-08T15:53:14;3.50;99.90
11991;DHT22;6055;52.522;13.446;2023-03-08T15:55:40;3.50;99.90
11991;DHT22;6055;52.522;13.446;2023-03-08T15:58:05;3.50;99.90
11991;DHT22;6055;52.522;13.446;2023-03-08T16:00:31;3.50;99.90
11991;DHT22;6055;52.522;13.446;2023-03-08T16:02:59;3.40;99.90
11991;DHT22;6055;52.522;13.446;2023-03-08T16:05:25;3.40;99.90
11991;DHT22;6055;52.522;13.446;2023-03-08T16:08:02;3.40;99.90
11991;DHT22;6055;52.522;13.446;2023-03-08T16:10:30;3.30;99.90
11991;DHT22;6055;52.522;13.446;2023-03-08T16:12:57;3.30;99.90
11991;DHT22;6055;52.522;13.446;2023-03-08T16:15:22;3.30;99.90
11991;DHT22;6055;52.522;13.446;2023-03-08T16:17:48;3.30;99.90
11991;DHT22;6055;52.522;13.446;2023-03-08T16:20:15;3.30;99.90
11991;DHT22;6055;52.522;13.446;2023-03-08T16:22:41;3.30;99.90
11991;DHT22;6055;52.522;13.446;2023-03-08T16:25:08;3.30;99.90
11991;DHT22;6055;52.522;13.446;2023-03-08T16:27:34;3.40;99.90
11991;DHT22;6055;52.522;13.446;2023-03-08T16:30:02;3.30;99.90
11991;DHT22;6055;52.522;13.446;2023-03-08T16:32:28;3.20;99.90
11991;DHT22;6055;52.522;13.446;2023-03-08T16:34:57;3.20;99.90
11991;DHT22;6055;52.522;13.446;2023-03-08T16:37:24;3.20;99.90
11991;DHT22;6055;52.522;13.446;2023-03-08T16:39:50;3.20;99.90
11991;DHT22;6055;52.522;13.446;2023-03-08T16:42:17;3.10;99.90
11991;DHT22;6055;52.522;13.446;2023-03-08T16:44:49;3.10;99.90
11991;DHT22;6055;52.522;13.446;2023-03-08T16:47:15;3.10;99.90
11991;DHT22;6055;52.522;13.446;2023-03-08T16:49:43;3.20;99.90
11991;DHT22;6055;52.522;13.446;2023-03-08T16:52:09;3.10;99.90
11991;DHT22;6055;52.522;13.446;2023-03-08T16:54:34;3.10;99.90
11991;DHT22;6055;52.522;13.446;2023-03-08T16:57:00;3.10;99.90
11991;DHT22;6055;52.522;13.446;2023-03-08T16:59:25;3.10;99.90